sensor_id;sensor_type;location;lat;lon;timestamp;temperature;humidity
27114;DHT22;14648;49.730;8.614;2023-07-16T00:01:31;21.70;73.70
27114;DHT22;14648;49.730;8.614;2023-07-16T00:03:57;21.70;73.70
27114;DHT22;14648;49.730;8.614;2023-07-16T00:06:23;21.60;73.80
27114;DHT22;14648;49.730;8.614;2023-07-16T00:08:48;21.70;73.80
27114;DHT22;14648;49.730;8.614;2023-07-16T00:11:14;21.60;73.80
27114;DHT22;14648;49.730;8.614;2023-07-16T00:13:39;21.60;73.90
27114;DHT22;14648;49.730;8.614;2023-07-16T00:16:11;21.60;74.00
27114;DHT22;14648;49.730;8.614;2023-07-16T00:18:37;21.60;74.00
27114;DHT22;14648;49.730;8.614;2023-07-16T00:21:03;21.60;74.10
27114;DHT22;14648;49.730;8.614;2023-07-16T00:23:29;21.50;74.10
27114;DHT22;14648;49.730;8.614;2023-07-16T00:25:54;21.50;74.30
27114;DHT22;14648;49.730;8.614;2023-07-16T00:28:20;21.50;74.30
27114;DHT22;14648;49.730;8.614;2023-07-16T00:30:46;21.50;74.40
27114;DHT22;14648;49.730;8.614;2023-07-16T00:33:11;21.50;74.50
27114;DHT22;14648;49.730;8.614;2023-07-16T00:35:37;21.50;74.60
27114;DHT22;14648;49.730;8.614;2023-07-16T00:38:03;21.50;74.70
27114;DHT22;14648;49.730;8.614;2023-07-16T00:40:28;21.50;74.70
27114;DHT22;14648;49.730;8.614;2023-07-16T00:42:54;21.40;74.80
27114;DHT22;14648;49.730;8.614;2023-07-16T00:45:20;21.40;74.80
27114;DHT22;14648;49.730;8.614;2023-07-16T00:47:45;21.40;74.90
27114;DHT22;14648;49.730;8.614;2023-07-16T00:50:11;21.40;74.90
27114;DHT22;14648;49.730;8.614;2023-07-16T00:52:38;21.40;74.80
27114;DHT22;14648;49.730;8.614;2023-07-16T00:55:04;21.40;74.70
27114;DHT22;14648;49.730;8.614;2023-07-16T00:57:31;21.40;74.60
27114;DHT22;14648;49.730;8.614;2023-07-16T00:59:58;21.40;74.50
27114;DHT22;14648;49.730;8.614;2023-07-16T01:02:23;21.40;74.50
27114;DHT22;14648;49.730;8.614;2023-07-16T01:04:49;21.30;74.50
27114;DHT22;14648;49.730;8.614;2023-07-16T01:07:16;21.40;74.30
27114;DHT22;14648;49.730;8.614;2023-07-16T01:09:44;21.30;74.10
27114;DHT22;14648;49.730;8.614;2023-07-16T01:12:10;21.30;74.00
27114;DHT22;14648;49.730;8.614;2023-07-16T01:14:37;21.20;73.70
27114;DHT22;14648;49.730;8.614;2023-07-16T01:17:07;21.30;73.70
27114;DHT22;14648;49.730;8.614;2023-07-16T01:19:34;21.20;73.60
27114;DHT22;14648;49.730;8.614;2023-07-16T01:27:58;21.10;73.60
27114;DHT22;14648;49.730;8.614;2023-07-16T01:30:26;21.00;73.50
27114;DHT22;14648;49.730;8.614;2023-07-16T01:32:53;21.00;73.30
27114;DHT22;14648;49.730;8.614;2023-07-16T01:35:21;21.00;73.30
27114;DHT22;14648;49.730;8.614;2023-07-16T01:37:46;21.00;73.30
27114;DHT22;14648;49.730;8.614;2023-07-16T01:40:13;21.00;73.40
27114;DHT22;14648;49.730;8.614;2023-07-16T01:42:39;21.00;73.30
27114;DHT22;14648;49.730;8.614;2023-07-16T01:45:06;21.00;73.30
27114;DHT22;14648;49.730;8.614;2023-07-16T01:47:59;21.00;73.20
27114;DHT22;14648;49.730;8.614;2023-07-16T01:50:32;20.90;73.20
27114;DHT22;14648;49.730;8.614;2023-07-16T01:52:57;20.90;73.00
27114;DHT22;14648;49.730;8.614;2023-07-16T01:55:23;20.90;72.80
27114;DHT22;14648;49.730;8.614;2023-07-16T01:57:49;20.80;72.60
27114;DHT22;14648;49.730;8.614;2023-07-16T02:00:14;20.80;72.50
27114;DHT22;14648;49.730;8.614;2023-07-16T02:02:40;20.80;72.40
27114;DHT22;14648;49.730;8.614;2023-07-16T02:05:06;20.70;72.40
27114;DHT22;14648;49.730;8.614;2023-07-16T02:07:31;20.70;72.50
27114;DHT22;14648;49.730;8.614;2023-07-16T02:09:57;20.70;72.50
27114;DHT22;14648;49.730;8.614;2023-07-16T02:12:23;20.70;72.40
27114;DHT22;14648;49.730;8.614;2023-07-16T02:14:48;20.60;72.40
27114;DHT22;14648;49.730;8.614;2023-07-16T02:17:14;20.70;72.50
27114;DHT22;14648;49.730;8.614;2023-07-16T02:19:39;20.60;72.40
27114;DHT22;14648;49.730;8.614;2023-07-16T02:22:05;20.70;72.50
27114;DHT22;14648;49.730;8.614;2023-07-16T02:24:31;20.70;72.50
27114;DHT22;14648;49.730;8.614;2023-07-16T02:26:56;20.60;72.30
27114;DHT22;14648;49.730;8.614;2023-07-16T02:29:22;20.70;72.40
27114;DHT22;14648;49.730;8.614;2023-07-16T02:31:48;20.60;72.40
27114;DHT22;14648;49.730;8.614;2023-07-16T02:34:14;20.60;72.40
27114;DHT22;14648;49.730;8.614;2023-07-16T02:36:39;20.60;72.40
27114;DHT22;14648;49.730;8.614;2023-07-16T02:39:05;20.60;72.50
27114;DHT22;14648;49.730;8.614;2023-07-16T02:41:31;20.50;72.40
27114;DHT22;14648;49.730;8.614;2023-07-16T02:44:01;20.60;72.50
27114;DHT22;14648;49.730;8.614;2023-07-16T02:46:29;20.50;72.50
27114;DHT22;14648;49.730;8.614;2023-07-16T02:48:54;20.50;72.30
27114;DHT22;14648;49.730;8.614;2023-07-16T02:51:20;20.60;72.20
27114;DHT22;14648;49.730;8.614;2023-07-16T02:53:46;20.50;72.10
27114;DHT22;14648;49.730;8.614;2023-07-16T02:56:12;20.50;72.00
27114;DHT22;14648;49.730;8.614;2023-07-16T02:58:37;20.50;72.00
27114;DHT22;14648;49.730;8.614;2023-07-16T03:01:03;20.50;71.90
27114;DHT22;14648;49.730;8.614;2023-07-16T03:03:29;20.50;71.60
27114;DHT22;14648;49.730;8.614;2023-07-16T03:05:55;20.50;72.20
27114;DHT22;14648;49.730;8.614;2023-07-16T03:08:20;20.50;71.30
27114;DHT22;14648;49.730;8.614;2023-07-16T03:10:46;20.50;71.00
27114;DHT22;14648;49.730;8.614;2023-07-16T03:13:12;20.40;70.90
27114;DHT22;14648;49.730;8.614;2023-07-16T03:15:37;20.40;70.60
27114;DHT22;14648;49.730;8.614;2023-07-16T03:18:03;20.40;70.60
27114;DHT22;14648;49.730;8.614;2023-07-16T03:20:29;20.40;70.40
27114;DHT22;14648;49.730;8.614;2023-07-16T03:22:54;20.40;70.20
27114;DHT22;14648;49.730;8.614;2023-07-16T03:25:20;20.40;70.10
27114;DHT22;14648;49.730;8.614;2023-07-16T03:27:45;20.40;70.00
27114;DHT22;14648;49.730;8.614;2023-07-16T03:30:11;20.30;69.70
27114;DHT22;14648;49.730;8.614;2023-07-16T03:32:37;20.30;69.70
27114;DHT22;14648;49.730;8.614;2023-07-16T03:35:03;20.30;69.60
27114;DHT22;14648;49.730;8.614;2023-07-16T03:37:28;20.20;69.30
27114;DHT22;14648;49.730;8.614;2023-07-16T03:39:54;20.20;69.20
27114;DHT22;14648;49.730;8.614;2023-07-16T03:42:20;20.20;69.00
27114;DHT22;14648;49.730;8.614;2023-07-16T03:44:47;20.10;69.00
27114;DHT22;14648;49.730;8.614;2023-07-16T03:47:13;20.10;68.90
27114;DHT22;14648;49.730;8.614;2023-07-16T03:49:38;20.10;68.90
27114;DHT22;14648;49.730;8.614;2023-07-16T03:52:05;20.10;68.80
27114;DHT22;14648;49.730;8.614;2023-07-16T03:54:31;20.00;68.60
27114;DHT22;14648;49.730;8.614;2023-07-16T03:56:57;20.00;68.60
27114;DHT22;14648;49.730;8.614;2023-07-16T03:59:22;20.00;68.50
27114;DHT22;14648;49.730;8.614;2023-07-16T04:01:48;19.90;69.30
27114;DHT22;14648;49.730;8.614;2023-07-16T04:04:14;19.90;68.60
27114;DHT22;14648;49.730;8.614;2023-07-16T04:06:39;19.80;68.50
27114;DHT22;14648;49.730;8.614;2023-07-16T04:09:05;19.80;68.40
27114;DHT22;14648;49.730;8.614;2023-07-16T04:11:30;19.70;68.40
27114;DHT22;14648;49.730;8.614;2023-07-16T04:13:56;19.70;68.50
27114;DHT22;14648;49.730;8.614;2023-07-16T04:16:22;19.60;68.30
27114;DHT22;14648;49.730;8.614;2023-07-16T04:18:47;19.50;68.50
27114;DHT22;14648;49.730;8.614;2023-07-16T04:21:13;19.50;68.50
27114;DHT22;14648;49.730;8.614;2023-07-16T04:23:39;19.40;68.50
27114;DHT22;14648;49.730;8.614;2023-07-16T04:26:04;19.50;68.60
27114;DHT22;14648;49.730;8.614;2023-07-16T04:28:30;19.40;68.40
27114;DHT22;14648;49.730;8.614;2023-07-16T04:30:55;19.40;68.40
27114;DHT22;14648;49.730;8.614;2023-07-16T04:33:21;19.40;68.40
27114;DHT22;14648;49.730;8.614;2023-07-16T04:35:47;19.30;68.30
27114;DHT22;14648;49.730;8.614;2023-07-16T04:38:12;19.30;68.20
27114;DHT22;14648;49.730;8.614;2023-07-16T04:40:38;19.30;68.20
27114;DHT22;14648;49.730;8.614;2023-07-16T04:43:03;19.30;68.00
27114;DHT22;14648;49.730;8.614;2023-07-16T04:45:29;19.20;67.80
27114;DHT22;14648;49.730;8.614;2023-07-16T04:47:55;19.30;67.90
27114;DHT22;14648;49.730;8.614;2023-07-16T04:50:20;19.20;67.60
27114;DHT22;14648;49.730;8.614;2023-07-16T04:52:46;19.30;67.60
27114;DHT22;14648;49.730;8.614;2023-07-16T04:55:12;19.20;67.50
27114;DHT22;14648;49.730;8.614;2023-07-16T04:57:37;19.30;67.40
27114;DHT22;14648;49.730;8.614;2023-07-16T05:00:04;19.20;67.10
27114;DHT22;14648;49.730;8.614;2023-07-16T05:02:31;19.20;67.10
27114;DHT22;14648;49.730;8.614;2023-07-16T05:04:57;19.20;67.00
27114;DHT22;14648;49.730;8.614;2023-07-16T05:07:23;19.20;66.90
27114;DHT22;14648;49.730;8.614;2023-07-16T05:09:49;19.20;66.80
27114;DHT22;14648;49.730;8.614;2023-07-16T05:12:14;19.20;66.70
27114;DHT22;14648;49.730;8.614;2023-07-16T05:14:47;19.20;66.50
27114;DHT22;14648;49.730;8.614;2023-07-16T05:17:13;19.20;66.40
27114;DHT22;14648;49.730;8.614;2023-07-16T05:19:39;19.30;66.60
27114;DHT22;14648;49.730;8.614;2023-07-16T05:22:06;19.30;66.50
27114;DHT22;14648;49.730;8.614;2023-07-16T05:24:32;19.30;66.40
27114;DHT22;14648;49.730;8.614;2023-07-16T05:26:58;19.30;66.40
27114;DHT22;14648;49.730;8.614;2023-07-16T05:29:23;19.30;66.30
27114;DHT22;14648;49.730;8.614;2023-07-16T05:31:49;19.30;66.10
27114;DHT22;14648;49.730;8.614;2023-07-16T05:34:15;19.40;66.10
27114;DHT22;14648;49.730;8.614;2023-07-16T05:36:42;19.30;66.00
27114;DHT22;14648;49.730;8.614;2023-07-16T05:39:10;19.40;65.90
27114;DHT22;14648;49.730;8.614;2023-07-16T05:41:40;19.40;65.80
27114;DHT22;14648;49.730;8.614;2023-07-16T05:44:06;19.40;65.80
27114;DHT22;14648;49.730;8.614;2023-07-16T05:46:33;19.40;65.70
27114;DHT22;14648;49.730;8.614;2023-07-16T05:48:59;19.40;65.50
27114;DHT22;14648;49.730;8.614;2023-07-16T05:51:25;19.40;65.40
27114;DHT22;14648;49.730;8.614;2023-07-16T05:53:50;19.40;65.40
27114;DHT22;14648;49.730;8.614;2023-07-16T05:56:16;19.50;65.40
27114;DHT22;14648;49.730;8.614;2023-07-16T05:58:42;19.50;65.30
27114;DHT22;14648;49.730;8.614;2023-07-16T06:01:08;19.50;65.20
27114;DHT22;14648;49.730;8.614;2023-07-16T06:03:34;19.50;65.10
27114;DHT22;14648;49.730;8.614;2023-07-16T06:05:59;19.60;65.00
27114;DHT22;14648;49.730;8.614;2023-07-16T06:08:25;19.60;64.90
27114;DHT22;14648;49.730;8.614;2023-07-16T06:10:51;19.60;64.70
27114;DHT22;14648;49.730;8.614;2023-07-16T06:13:17;19.60;64.60
27114;DHT22;14648;49.730;8.614;2023-07-16T06:15:43;19.70;64.60
27114;DHT22;14648;49.730;8.614;2023-07-16T06:18:09;19.70;64.40
27114;DHT22;14648;49.730;8.614;2023-07-16T06:20:35;19.70;64.20
27114;DHT22;14648;49.730;8.614;2023-07-16T06:23:01;19.70;64.00
27114;DHT22;14648;49.730;8.614;2023-07-16T06:25:26;19.70;63.80
27114;DHT22;14648;49.730;8.614;2023-07-16T06:27:52;19.80;63.40
27114;DHT22;14648;49.730;8.614;2023-07-16T06:30:18;19.80;63.30
27114;DHT22;14648;49.730;8.614;2023-07-16T06:32:44;19.90;63.20
27114;DHT22;14648;49.730;8.614;2023-07-16T06:35:09;19.90;63.10
27114;DHT22;14648;49.730;8.614;2023-07-16T06:37:35;19.90;63.00
27114;DHT22;14648;49.730;8.614;2023-07-16T06:40:01;19.90;62.90
27114;DHT22;14648;49.730;8.614;2023-07-16T06:42:26;20.00;62.80
27114;DHT22;14648;49.730;8.614;2023-07-16T06:44:52;20.00;62.50
27114;DHT22;14648;49.730;8.614;2023-07-16T06:47:18;20.10;62.40
27114;DHT22;14648;49.730;8.614;2023-07-16T06:49:44;20.10;62.40
27114;DHT22;14648;49.730;8.614;2023-07-16T06:52:19;20.10;62.20
27114;DHT22;14648;49.730;8.614;2023-07-16T06:54:48;20.20;62.00
27114;DHT22;14648;49.730;8.614;2023-07-16T06:57:14;20.20;61.80
27114;DHT22;14648;49.730;8.614;2023-07-16T06:59:39;20.30;61.40
27114;DHT22;14648;49.730;8.614;2023-07-16T07:02:06;20.30;61.10
27114;DHT22;14648;49.730;8.614;2023-07-16T07:04:31;20.30;60.80
27114;DHT22;14648;49.730;8.614;2023-07-16T07:06:57;20.40;60.50
27114;DHT22;14648;49.730;8.614;2023-07-16T07:09:23;20.40;60.20
27114;DHT22;14648;49.730;8.614;2023-07-16T07:11:48;20.40;60.00
27114;DHT22;14648;49.730;8.614;2023-07-16T07:14:14;20.40;59.90
27114;DHT22;14648;49.730;8.614;2023-07-16T07:16:40;20.50;60.00
27114;DHT22;14648;49.730;8.614;2023-07-16T07:19:05;20.50;59.70
27114;DHT22;14648;49.730;8.614;2023-07-16T07:21:31;20.60;59.50
27114;DHT22;14648;49.730;8.614;2023-07-16T07:23:57;20.50;59.50
27114;DHT22;14648;49.730;8.614;2023-07-16T07:26:22;20.60;59.40
27114;DHT22;14648;49.730;8.614;2023-07-16T07:28:48;20.50;58.80
27114;DHT22;14648;49.730;8.614;2023-07-16T07:31:14;20.60;58.60
27114;DHT22;14648;49.730;8.614;2023-07-16T07:33:39;20.60;58.90
27114;DHT22;14648;49.730;8.614;2023-07-16T07:36:06;20.60;58.00
27114;DHT22;14648;49.730;8.614;2023-07-16T07:38:31;20.70;58.30
27114;DHT22;14648;49.730;8.614;2023-07-16T07:40:57;20.70;58.10
27114;DHT22;14648;49.730;8.614;2023-07-16T07:43:23;20.70;57.90
27114;DHT22;14648;49.730;8.614;2023-07-16T07:45:48;20.70;57.70
27114;DHT22;14648;49.730;8.614;2023-07-16T07:48:14;20.70;57.70
27114;DHT22;14648;49.730;8.614;2023-07-16T07:50:40;20.80;57.50
27114;DHT22;14648;49.730;8.614;2023-07-16T07:53:05;20.80;57.40
27114;DHT22;14648;49.730;8.614;2023-07-16T07:55:31;20.80;57.20
27114;DHT22;14648;49.730;8.614;2023-07-16T07:57:59;20.80;57.20
27114;DHT22;14648;49.730;8.614;2023-07-16T08:00:24;20.80;56.90
27114;DHT22;14648;49.730;8.614;2023-07-16T08:02:50;20.80;57.00
27114;DHT22;14648;49.730;8.614;2023-07-16T08:05:15;20.80;57.10
27114;DHT22;14648;49.730;8.614;2023-07-16T08:07:41;20.90;57.20
27114;DHT22;14648;49.730;8.614;2023-07-16T08:10:07;21.10;57.30
27114;DHT22;14648;49.730;8.614;2023-07-16T08:12:33;21.20;57.10
27114;DHT22;14648;49.730;8.614;2023-07-16T08:14:58;21.30;56.80
27114;DHT22;14648;49.730;8.614;2023-07-16T08:17:24;21.40;56.30
27114;DHT22;14648;49.730;8.614;2023-07-16T08:19:50;21.50;56.20
27114;DHT22;14648;49.730;8.614;2023-07-16T08:22:15;21.40;55.70
27114;DHT22;14648;49.730;8.614;2023-07-16T08:24:41;21.50;55.40
27114;DHT22;14648;49.730;8.614;2023-07-16T08:27:06;21.50;54.90
27114;DHT22;14648;49.730;8.614;2023-07-16T08:29:34;21.50;54.90
27114;DHT22;14648;49.730;8.614;2023-07-16T08:32:01;21.40;54.60
27114;DHT22;14648;49.730;8.614;2023-07-16T08:34:26;21.50;54.70
27114;DHT22;14648;49.730;8.614;2023-07-16T08:36:52;21.60;54.30
27114;DHT22;14648;49.730;8.614;2023-07-16T08:39:18;21.60;53.90
27114;DHT22;14648;49.730;8.614;2023-07-16T08:41:44;21.70;53.90
27114;DHT22;14648;49.730;8.614;2023-07-16T08:44:12;21.70;53.50
27114;DHT22;14648;49.730;8.614;2023-07-16T08:46:38;21.80;53.70
27114;DHT22;14648;49.730;8.614;2023-07-16T08:49:07;21.90;53.30
27114;DHT22;14648;49.730;8.614;2023-07-16T08:51:34;22.00;52.60
27114;DHT22;14648;49.730;8.614;2023-07-16T08:54:03;21.90;52.20
27114;DHT22;14648;49.730;8.614;2023-07-16T08:56:29;21.90;51.80
27114;DHT22;14648;49.730;8.614;2023-07-16T08:58:55;21.90;52.00
27114;DHT22;14648;49.730;8.614;2023-07-16T09:01:21;21.90;52.00
27114;DHT22;14648;49.730;8.614;2023-07-16T09:03:47;21.90;52.00
27114;DHT22;14648;49.730;8.614;2023-07-16T09:06:13;21.90;52.00
27114;DHT22;14648;49.730;8.614;2023-07-16T09:08:39;22.00;51.80
27114;DHT22;14648;49.730;8.614;2023-07-16T09:11:05;22.20;51.60
27114;DHT22;14648;49.730;8.614;2023-07-16T09:13:30;22.30;51.10
27114;DHT22;14648;49.730;8.614;2023-07-16T09:15:57;22.40;50.80
27114;DHT22;14648;49.730;8.614;2023-07-16T09:18:25;22.50;50.80
27114;DHT22;14648;49.730;8.614;2023-07-16T09:20:56;22.60;50.60
27114;DHT22;14648;49.730;8.614;2023-07-16T09:23:24;22.70;49.90
27114;DHT22;14648;49.730;8.614;2023-07-16T09:25:51;22.70;49.60
27114;DHT22;14648;49.730;8.614;2023-07-16T09:28:19;22.80;49.50
27114;DHT22;14648;49.730;8.614;2023-07-16T09:30:46;22.90;49.00
27114;DHT22;14648;49.730;8.614;2023-07-16T09:33:18;23.10;48.70
27114;DHT22;14648;49.730;8.614;2023-07-16T09:35:48;23.10;47.90
27114;DHT22;14648;49.730;8.614;2023-07-16T09:38:15;23.00;48.00
27114;DHT22;14648;49.730;8.614;2023-07-16T09:40:41;23.00;48.20
27114;DHT22;14648;49.730;8.614;2023-07-16T09:43:11;22.90;48.10
27114;DHT22;14648;49.730;8.614;2023-07-16T09:45:37;22.90;48.20
27114;DHT22;14648;49.730;8.614;2023-07-16T09:48:04;22.90;47.80
27114;DHT22;14648;49.730;8.614;2023-07-16T09:50:32;22.90;47.60
27114;DHT22;14648;49.730;8.614;2023-07-16T09:52:59;22.90;47.20
27114;DHT22;14648;49.730;8.614;2023-07-16T09:55:25;23.00;47.50
27114;DHT22;14648;49.730;8.614;2023-07-16T09:57:57;23.10;47.40
27114;DHT22;14648;49.730;8.614;2023-07-16T10:00:23;23.30;46.70
27114;DHT22;14648;49.730;8.614;2023-07-16T10:02:51;23.50;46.40
27114;DHT22;14648;49.730;8.614;2023-07-16T10:05:23;23.70;45.80
27114;DHT22;14648;49.730;8.614;2023-07-16T10:07:52;23.80;45.30
27114;DHT22;14648;49.730;8.614;2023-07-16T10:10:19;23.90;45.20
27114;DHT22;14648;49.730;8.614;2023-07-16T10:13:01;24.00;44.80
27114;DHT22;14648;49.730;8.614;2023-07-16T10:15:30;24.10;44.20
27114;DHT22;14648;49.730;8.614;2023-07-16T10:17:56;24.20;44.20
27114;DHT22;14648;49.730;8.614;2023-07-16T10:20:30;24.20;43.60
27114;DHT22;14648;49.730;8.614;2023-07-16T10:23:13;24.20;43.10
27114;DHT22;14648;49.730;8.614;2023-07-16T10:25:41;24.00;43.00
27114;DHT22;14648;49.730;8.614;2023-07-16T10:28:22;24.00;43.20
27114;DHT22;14648;49.730;8.614;2023-07-16T10:30:49;24.00;43.30
27114;DHT22;14648;49.730;8.614;2023-07-16T10:33:15;24.00;42.80
27114;DHT22;14648;49.730;8.614;2023-07-16T10:35:42;24.10;42.70
27114;DHT22;14648;49.730;8.614;2023-07-16T10:38:08;24.10;42.60
27114;DHT22;14648;49.730;8.614;2023-07-16T10:40:48;24.20;42.30
27114;DHT22;14648;49.730;8.614;2023-07-16T10:43:14;24.30;42.20
27114;DHT22;14648;49.730;8.614;2023-07-16T10:45:40;24.40;42.30
27114;DHT22;14648;49.730;8.614;2023-07-16T10:48:07;24.50;42.40
27114;DHT22;14648;49.730;8.614;2023-07-16T10:50:33;24.70;42.60
27114;DHT22;14648;49.730;8.614;2023-07-16T10:53:00;25.00;41.80
27114;DHT22;14648;49.730;8.614;2023-07-16T10:55:28;25.10;41.00
27114;DHT22;14648;49.730;8.614;2023-07-16T10:57:56;25.10;40.60
27114;DHT22;14648;49.730;8.614;2023-07-16T11:00:22;25.10;40.60
27114;DHT22;14648;49.730;8.614;2023-07-16T11:02:49;25.10;40.70
27114;DHT22;14648;49.730;8.614;2023-07-16T11:05:17;25.20;39.70
27114;DHT22;14648;49.730;8.614;2023-07-16T11:07:44;25.30;39.80
27114;DHT22;14648;49.730;8.614;2023-07-16T11:10:11;25.40;39.30
27114;DHT22;14648;49.730;8.614;2023-07-16T11:12:37;25.50;38.70
27114;DHT22;14648;49.730;8.614;2023-07-16T11:15:03;25.60;38.50
27114;DHT22;14648;49.730;8.614;2023-07-16T11:17:29;25.70;38.20
27114;DHT22;14648;49.730;8.614;2023-07-16T11:19:55;25.80;38.40
27114;DHT22;14648;49.730;8.614;2023-07-16T11:22:27;25.90;37.80
27114;DHT22;14648;49.730;8.614;2023-07-16T11:24:53;26.00;37.80
27114;DHT22;14648;49.730;8.614;2023-07-16T11:27:27;26.10;38.10
27114;DHT22;14648;49.730;8.614;2023-07-16T11:29:58;26.10;37.70
27114;DHT22;14648;49.730;8.614;2023-07-16T11:32:32;26.20;37.70
27114;DHT22;14648;49.730;8.614;2023-07-16T11:35:00;26.20;37.00
27114;DHT22;14648;49.730;8.614;2023-07-16T11:37:28;26.20;37.30
27114;DHT22;14648;49.730;8.614;2023-07-16T11:40:01;26.20;37.30
27114;DHT22;14648;49.730;8.614;2023-07-16T11:42:33;26.30;37.20
27114;DHT22;14648;49.730;8.614;2023-07-16T11:45:00;26.50;36.60
27114;DHT22;14648;49.730;8.614;2023-07-16T11:47:27;26.60;36.80
27114;DHT22;14648;49.730;8.614;2023-07-16T11:49:53;26.70;36.30
27114;DHT22;14648;49.730;8.614;2023-07-16T11:52:21;26.80;36.00
27114;DHT22;14648;49.730;8.614;2023-07-16T11:54:49;26.80;35.60
27114;DHT22;14648;49.730;8.614;2023-07-16T11:57:19;26.80;35.30
27114;DHT22;14648;49.730;8.614;2023-07-16T11:59:45;26.70;34.70
27114;DHT22;14648;49.730;8.614;2023-07-16T12:02:12;26.80;34.90
27114;DHT22;14648;49.730;8.614;2023-07-16T12:04:38;26.90;34.80
27114;DHT22;14648;49.730;8.614;2023-07-16T12:07:04;26.90;35.00
27114;DHT22;14648;49.730;8.614;2023-07-16T12:09:30;27.10;35.30
27114;DHT22;14648;49.730;8.614;2023-07-16T12:11:56;27.10;34.90
27114;DHT22;14648;49.730;8.614;2023-07-16T12:14:22;27.10;34.50
27114;DHT22;14648;49.730;8.614;2023-07-16T12:16:48;26.90;34.50
27114;DHT22;14648;49.730;8.614;2023-07-16T12:19:13;26.90;34.50
27114;DHT22;14648;49.730;8.614;2023-07-16T12:21:39;26.90;34.20
27114;DHT22;14648;49.730;8.614;2023-07-16T12:24:05;27.00;34.20
27114;DHT22;14648;49.730;8.614;2023-07-16T12:26:33;26.90;33.50
27114;DHT22;14648;49.730;8.614;2023-07-16T12:29:00;27.00;34.10
27114;DHT22;14648;49.730;8.614;2023-07-16T12:31:32;27.10;33.90
27114;DHT22;14648;49.730;8.614;2023-07-16T12:33:59;27.30;33.70
27114;DHT22;14648;49.730;8.614;2023-07-16T12:36:27;27.40;33.50
27114;DHT22;14648;49.730;8.614;2023-07-16T12:38:53;27.50;33.50
27114;DHT22;14648;49.730;8.614;2023-07-16T12:41:22;27.50;33.10
27114;DHT22;14648;49.730;8.614;2023-07-16T12:43:48;27.40;32.90
27114;DHT22;14648;49.730;8.614;2023-07-16T12:46:14;27.40;32.70
27114;DHT22;14648;49.730;8.614;2023-07-16T12:48:39;27.50;33.10
27114;DHT22;14648;49.730;8.614;2023-07-16T12:51:05;27.60;33.10
27114;DHT22;14648;49.730;8.614;2023-07-16T12:53:31;27.80;32.90
27114;DHT22;14648;49.730;8.614;2023-07-16T12:55:58;27.90;32.60
27114;DHT22;14648;49.730;8.614;2023-07-16T12:58:23;27.80;32.50
27114;DHT22;14648;49.730;8.614;2023-07-16T13:00:50;27.80;32.50
27114;DHT22;14648;49.730;8.614;2023-07-16T13:03:16;27.80;32.50
27114;DHT22;14648;49.730;8.614;2023-07-16T13:05:43;27.80;32.60
27114;DHT22;14648;49.730;8.614;2023-07-16T13:08:10;27.90;32.50
27114;DHT22;14648;49.730;8.614;2023-07-16T13:10:36;28.00;32.50
27114;DHT22;14648;49.730;8.614;2023-07-16T13:13:02;28.10;32.20
27114;DHT22;14648;49.730;8.614;2023-07-16T13:15:29;28.20;32.30
27114;DHT22;14648;49.730;8.614;2023-07-16T13:17:55;28.40;32.30
27114;DHT22;14648;49.730;8.614;2023-07-16T13:20:21;28.50;32.20
27114;DHT22;14648;49.730;8.614;2023-07-16T13:22:48;28.60;31.90
27114;DHT22;14648;49.730;8.614;2023-07-16T13:25:13;28.60;31.50
27114;DHT22;14648;49.730;8.614;2023-07-16T13:27:39;28.80;30.90
27114;DHT22;14648;49.730;8.614;2023-07-16T13:30:06;28.80;31.80
27114;DHT22;14648;49.730;8.614;2023-07-16T13:32:32;28.90;31.00
27114;DHT22;14648;49.730;8.614;2023-07-16T13:34:58;29.00;31.10
27114;DHT22;14648;49.730;8.614;2023-07-16T13:37:24;28.90;30.60
27114;DHT22;14648;49.730;8.614;2023-07-16T13:39:50;28.90;30.60
27114;DHT22;14648;49.730;8.614;2023-07-16T13:42:16;29.00;31.20
27114;DHT22;14648;49.730;8.614;2023-07-16T13:44:41;29.00;30.80
27114;DHT22;14648;49.730;8.614;2023-07-16T13:47:07;29.00;31.10
27114;DHT22;14648;49.730;8.614;2023-07-16T13:49:32;29.10;31.20
27114;DHT22;14648;49.730;8.614;2023-07-16T13:51:58;29.10;31.00
27114;DHT22;14648;49.730;8.614;2023-07-16T13:54:24;29.10;30.80
27114;DHT22;14648;49.730;8.614;2023-07-16T13:56:49;29.20;30.70
27114;DHT22;14648;49.730;8.614;2023-07-16T13:59:15;29.20;30.60
27114;DHT22;14648;49.730;8.614;2023-07-16T14:01:41;29.20;30.60
27114;DHT22;14648;49.730;8.614;2023-07-16T14:04:07;29.30;30.70
27114;DHT22;14648;49.730;8.614;2023-07-16T14:06:33;29.30;30.30
27114;DHT22;14648;49.730;8.614;2023-07-16T14:08:59;29.20;30.20
27114;DHT22;14648;49.730;8.614;2023-07-16T14:11:25;29.20;30.30
27114;DHT22;14648;49.730;8.614;2023-07-16T14:13:52;29.40;30.50
27114;DHT22;14648;49.730;8.614;2023-07-16T14:16:21;29.30;29.90
27114;DHT22;14648;49.730;8.614;2023-07-16T14:18:50;29.30;30.10
27114;DHT22;14648;49.730;8.614;2023-07-16T14:21:18;29.40;29.70
27114;DHT22;14648;49.730;8.614;2023-07-16T14:23:44;29.30;30.10
27114;DHT22;14648;49.730;8.614;2023-07-16T14:26:10;29.40;30.10
27114;DHT22;14648;49.730;8.614;2023-07-16T14:28:35;29.50;29.90
27114;DHT22;14648;49.730;8.614;2023-07-16T14:31:01;29.50;29.80
27114;DHT22;14648;49.730;8.614;2023-07-16T14:33:29;29.60;29.70
27114;DHT22;14648;49.730;8.614;2023-07-16T14:35:57;29.70;29.30
27114;DHT22;14648;49.730;8.614;2023-07-16T14:38:23;29.60;29.20
27114;DHT22;14648;49.730;8.614;2023-07-16T14:40:49;29.60;29.20
27114;DHT22;14648;49.730;8.614;2023-07-16T14:43:19;29.50;29.00
27114;DHT22;14648;49.730;8.614;2023-07-16T14:45:44;29.40;28.80
27114;DHT22;14648;49.730;8.614;2023-07-16T14:48:10;29.20;29.20
27114;DHT22;14648;49.730;8.614;2023-07-16T14:50:36;29.30;29.30
27114;DHT22;14648;49.730;8.614;2023-07-16T14:53:01;29.20;29.70
27114;DHT22;14648;49.730;8.614;2023-07-16T14:55:27;29.30;29.20
27114;DHT22;14648;49.730;8.614;2023-07-16T14:57:53;29.30;29.20
27114;DHT22;14648;49.730;8.614;2023-07-16T15:00:19;29.30;28.80
27114;DHT22;14648;49.730;8.614;2023-07-16T15:02:45;29.20;29.40
27114;DHT22;14648;49.730;8.614;2023-07-16T15:05:11;29.20;29.20
27114;DHT22;14648;49.730;8.614;2023-07-16T15:07:36;29.30;29.00
27114;DHT22;14648;49.730;8.614;2023-07-16T15:10:06;29.30;28.90
27114;DHT22;14648;49.730;8.614;2023-07-16T15:12:32;29.20;28.90
27114;DHT22;14648;49.730;8.614;2023-07-16T15:14:58;29.20;28.80
27114;DHT22;14648;49.730;8.614;2023-07-16T15:17:24;29.10;29.00
27114;DHT22;14648;49.730;8.614;2023-07-16T15:19:51;29.10;29.20
27114;DHT22;14648;49.730;8.614;2023-07-16T15:22:17;29.10;29.10
27114;DHT22;14648;49.730;8.614;2023-07-16T15:24:49;29.10;29.00
27114;DHT22;14648;49.730;8.614;2023-07-16T15:27:15;29.10;29.20
27114;DHT22;14648;49.730;8.614;2023-07-16T15:29:41;29.10;29.10
27114;DHT22;14648;49.730;8.614;2023-07-16T15:32:07;29.10;29.10